CheckWX is a tool to help pilots better visualize weather data.  It is not intended as a substitute for an official pre-flight weather briefing.

08:59:50 UTC

KDCU METAR
Pryor Field Regional Airport
Decatur, Alabama, USA
Current

1 hour ago

KDCU 250753Z AUTO 10004KT 10SM CLR 21/19 A2997 RMK AO2 SLP141 T02110189
Observed
May-25 @ 07:53 UTC
Wind
  • 100° at 4 KTS
Visibility
Flight Rules
VFR
Cloud Levels
  • Clear skies
Temperature
21°C / 70°F
Dewpoint
19°C / 66°F
Humidity
88%
Altimeter
29.97" Hg
Pressure
1014.92 hPa
Previous

2 hours ago

KDCU 250653Z AUTO 09004KT 10SM CLR 21/19 A2997 RMK AO2 SLP143 T02060189
Observed
May-25 @ 06:53 UTC
Wind
  • 090° at 4 KTS
Visibility
Flight Rules
VFR
Cloud Levels
  • Clear skies
Temperature
21°C / 70°F
Dewpoint
19°C / 66°F
Humidity
88%
Altimeter
29.97" Hg
Pressure
1014.92 hPa
Previous

3 hours ago

KDCU 250553Z AUTO 09003KT 10SM CLR 21/19 A2999 RMK AO2 SLP148 T02110194 10283 20211 403060178 58003
Observed
May-25 @ 05:53 UTC
Wind
  • 090° at 3 KTS
Visibility
Flight Rules
VFR
Cloud Levels
  • Clear skies
Dewpoint
19°C / 66°F
Humidity
88%
Altimeter
29.99" Hg
Pressure
1015.62 hPa